createdAt,value
2022-12-04T00:01:23.843Z,94083.50
2022-12-04T00:04:00.216Z,94087.28
2022-12-04T00:06:28.288Z,94080.69
2022-12-04T00:08:55.743Z,94081.28
2022-12-04T00:11:27.166Z,94076.00
2022-12-04T00:13:54.933Z,94079.03
2022-12-04T00:16:26.510Z,94078.09
2022-12-04T00:18:54.592Z,94083.41
2022-12-04T00:21:22.796Z,94085.66
2022-12-04T00:23:49.710Z,94079.88
2022-12-04T00:26:26.773Z,94086.22
2022-12-04T00:28:53.955Z,94076.34
2022-12-04T00:31:25.467Z,94082.94
2022-12-04T00:33:53.064Z,94069.06
2022-12-04T00:36:23.259Z,94070.44
2022-12-04T00:38:50.389Z,94068.56
2022-12-04T00:41:22.165Z,94078.47
2022-12-04T00:43:49.096Z,94071.25
2022-12-04T00:46:16.385Z,94085.84
2022-12-04T00:48:44.050Z,94074.22
2022-12-04T00:51:15.620Z,94075.19
2022-12-04T00:53:42.569Z,94072.22
2022-12-04T00:56:13.868Z,94091.41
2022-12-04T00:58:41.105Z,94095.88
2022-12-04T01:01:12.021Z,94097.53
2022-12-04T01:03:39.632Z,94088.56
2022-12-04T01:06:07.961Z,94079.28
2022-12-04T01:08:35.134Z,94084.84
2022-12-04T01:11:06.169Z,94080.22
2022-12-04T01:13:33.024Z,94077.88
2022-12-04T01:15:59.763Z,94078.91
2022-12-04T01:18:26.530Z,94079.88
2022-12-04T01:20:53.485Z,94084.84
2022-12-04T01:23:20.874Z,94091.41
2022-12-04T01:25:56.564Z,94091.63
2022-12-04T01:28:24.250Z,94095.19
2022-12-04T01:31:06.084Z,94099.03
2022-12-04T01:33:35.732Z,94084.84
2022-12-04T01:36:06.100Z,94091.72
2022-12-04T01:38:34.178Z,94088.44
2022-12-04T01:41:00.967Z,94066.59
2022-12-04T01:43:31.208Z,94080.81
2022-12-04T01:46:00.924Z,94077.72
2022-12-04T01:48:32.503Z,94073.25
2022-12-04T01:51:17.934Z,94072.06
2022-12-04T01:53:50.341Z,94069.47
2022-12-04T01:56:19.492Z,94073.84
2022-12-04T01:58:51.742Z,94074.91
2022-12-04T02:01:18.944Z,94060.78
2022-12-04T02:03:45.744Z,94063.81
2022-12-04T02:06:12.576Z,94049.16
2022-12-04T02:08:39.829Z,94047.63
2022-12-04T02:11:32.496Z,94051.34
2022-12-04T02:14:14.001Z,94030.50
2022-12-04T02:17:11.811Z,94041.78
2022-12-04T02:20:16.841Z,94049.63
2022-12-04T02:23:21.001Z,94052.81
2022-12-04T02:26:04.848Z,94032.47
2022-12-04T02:28:55.534Z,94046.72
2022-12-04T02:31:36.282Z,94025.06
2022-12-04T02:34:09.744Z,94035.50
2022-12-04T02:36:47.505Z,94039.19
2022-12-04T02:39:39.513Z,94039.66
2022-12-04T02:42:20.686Z,94032.59
2022-12-04T02:44:57.890Z,94030.50
2022-12-04T02:47:26.196Z,94031.22
2022-12-04T02:49:59.230Z,94029.63
2022-12-04T02:52:35.636Z,94025.78
2022-12-04T02:55:13.245Z,94024.97
2022-12-04T02:57:45.696Z,94034.22
2022-12-04T03:00:13.898Z,94029.63
2022-12-04T03:03:00.844Z,94021.75
2022-12-04T03:05:50.220Z,94014.22
2022-12-04T03:08:23.381Z,94025.03
2022-12-04T03:10:56.486Z,94027.44
2022-12-04T03:13:46.304Z,94012.13
2022-12-04T03:16:16.489Z,94025.53
2022-12-04T03:18:49.789Z,94039.66
2022-12-04T03:21:24.571Z,94042.84
2022-12-04T03:24:00.337Z,94039.91
2022-12-04T03:27:15.074Z,94044.59
2022-12-04T03:29:50.826Z,94044.91
2022-12-04T03:33:08.817Z,94045.06
2022-12-04T03:36:00.486Z,94060.59
2022-12-04T03:38:37.579Z,94059.69
2022-12-04T03:41:21.105Z,94059.91
2022-12-04T03:43:57.825Z,94066.00
2022-12-04T03:46:41.047Z,94043.09
2022-12-04T03:49:17.189Z,94051.66
2022-12-04T03:52:05.160Z,94051.16
2022-12-04T03:54:38.352Z,94052.22
2022-12-04T03:57:15.129Z,94062.56
2022-12-04T03:59:56.556Z,94051.75
2022-12-04T04:02:28.815Z,94049.75
2022-12-04T04:04:59.103Z,94046.47
2022-12-04T04:07:52.929Z,94042.00
2022-12-04T04:10:25.495Z,94035.03
2022-12-04T04:13:18.427Z,94027.75
2022-12-04T04:16:11.287Z,94024.25
2022-12-04T04:18:58.415Z,94017.31
2022-12-04T04:21:49.621Z,94023.44
2022-12-04T04:24:47.807Z,94031.22
2022-12-04T04:27:14.693Z,94027.44
2022-12-04T04:29:45.609Z,94017.50
2022-12-04T04:32:53.115Z,94029.38
2022-12-04T04:35:19.916Z,94026.47
2022-12-04T04:38:10.702Z,94033.78
2022-12-04T04:40:48.680Z,94051.91
2022-12-04T04:43:58.061Z,94044.25
2022-12-04T04:46:39.118Z,94048.84
2022-12-04T04:49:10.613Z,94058.13
2022-12-04T04:51:38.063Z,94051.41
2022-12-04T04:54:09.448Z,94042.94
2022-12-04T04:56:44.879Z,94044.84
2022-12-04T04:59:12.804Z,94041.19
2022-12-04T05:01:42.108Z,94031.66
2022-12-04T05:04:09.255Z,94031.13
2022-12-04T05:06:36.020Z,94040.63
2022-12-04T05:09:03.806Z,94043.91
2022-12-04T05:11:30.920Z,94051.69
2022-12-04T05:13:57.683Z,94039.47
2022-12-04T05:16:24.555Z,94051.91
2022-12-04T05:19:10.143Z,94037.53
2022-12-04T05:21:36.945Z,94030.16
2022-12-04T05:24:03.891Z,94019.22
2022-12-04T05:26:30.634Z,94029.06
2022-12-04T05:28:57.373Z,94030.84
2022-12-04T05:31:24.181Z,94026.25
2022-12-04T05:33:51.063Z,94025.06
2022-12-04T05:36:17.801Z,94026.84
2022-12-04T05:38:44.515Z,94035.19
2022-12-04T05:41:11.272Z,94032.84
2022-12-04T05:43:38.145Z,94030.84
2022-12-04T05:46:08.137Z,94041.88
2022-12-04T05:48:35.777Z,94032.59
2022-12-04T05:51:10.489Z,94028.16
2022-12-04T05:53:37.853Z,94037.50
2022-12-04T05:56:06.630Z,94028.13
2022-12-04T05:58:38.140Z,94014.25
2022-12-04T06:01:23.552Z,94013.56
2022-12-04T06:03:50.556Z,94031.66
2022-12-04T06:06:24.991Z,94021.00
2022-12-04T06:08:54.718Z,94023.59
2022-12-04T06:11:26.104Z,94020.75
2022-12-04T06:13:53.427Z,94018.50
2022-12-04T06:16:29.924Z,94015.91
2022-12-04T06:19:02.469Z,94024.97
2022-12-04T06:21:32.805Z,94019.19
2022-12-04T06:23:59.545Z,94027.91
2022-12-04T06:26:26.779Z,94017.56
2022-12-04T06:28:56.402Z,94019.44
2022-12-04T06:31:24.744Z,94024.25
2022-12-04T06:33:53.534Z,94013.53
2022-12-04T06:36:21.356Z,94019.66
2022-12-04T06:38:50.152Z,94016.38
2022-12-04T06:41:20.682Z,94023.56
2022-12-04T06:43:48.796Z,94052.03
2022-12-04T06:46:20.254Z,94059.03
2022-12-04T06:48:47.174Z,94035.63
2022-12-04T06:51:21.072Z,94042.69
2022-12-04T06:53:48.741Z,94028.47
2022-12-04T06:56:19.688Z,94037.78
2022-12-04T06:58:48.941Z,94025.44
2022-12-04T07:01:20.561Z,94033.03
2022-12-04T07:03:51.567Z,94043.28
2022-12-04T07:06:24.061Z,94047.38
2022-12-04T07:08:54.314Z,94051.66
2022-12-04T07:11:22.352Z,94059.28
2022-12-04T07:13:50.187Z,94056.59
2022-12-04T07:16:19.895Z,94063.75
2022-12-04T07:18:50.429Z,94059.38
2022-12-04T07:21:19.616Z,94043.75
2022-12-04T07:23:51.541Z,94041.88
2022-12-04T07:26:19.469Z,94049.75
2022-12-04T07:28:47.057Z,94053.78
2022-12-04T07:31:17.720Z,94046.97
2022-12-04T07:33:45.462Z,94045.78
2022-12-04T07:36:15.939Z,94048.44
2022-12-04T07:38:43.145Z,94065.25
2022-12-04T07:41:12.273Z,94064.56
2022-12-04T07:43:39.451Z,94066.66
2022-12-04T07:46:13.497Z,94068.97
2022-12-04T07:48:41.064Z,94063.25
2022-12-04T07:51:14.213Z,94065.13
2022-12-04T07:53:42.169Z,94063.09
2022-12-04T07:56:11.569Z,94052.63
2022-12-04T07:58:38.687Z,94054.84
2022-12-04T08:01:22.700Z,94057.81
2022-12-04T08:03:53.133Z,94057.00
2022-12-04T08:06:22.235Z,94071.44
2022-12-04T08:08:50.286Z,94069.56
2022-12-04T08:11:23.163Z,94068.50
2022-12-04T08:14:01.276Z,94054.84
2022-12-04T08:16:30.951Z,94069.66
2022-12-04T08:18:58.326Z,94072.94
2022-12-04T08:21:29.561Z,94062.56
2022-12-04T08:23:58.764Z,94069.41
2022-12-04T08:26:28.325Z,94071.63
2022-12-04T08:28:56.924Z,94067.75
2022-12-04T08:31:26.959Z,94070.22
2022-12-04T08:33:57.250Z,94072.19
2022-12-04T08:36:24.944Z,94078.19
2022-12-04T08:38:54.712Z,94088.44
2022-12-04T08:41:24.144Z,94101.50
2022-12-04T08:43:54.803Z,94095.63
2022-12-04T08:46:23.186Z,94086.28
2022-12-04T08:48:49.917Z,94082.50
2022-12-04T08:51:20.993Z,94078.84
2022-12-04T08:53:48.326Z,94060.53
2022-12-04T08:56:15.070Z,94065.56
2022-12-04T08:58:41.812Z,94050.72
2022-12-04T09:01:12.538Z,94044.00
2022-12-04T09:03:40.544Z,94034.31
2022-12-04T09:06:10.200Z,94033.75
2022-12-04T09:08:37.778Z,94038.53
2022-12-04T09:11:06.192Z,94031.81
2022-12-04T09:13:33.628Z,94032.03
2022-12-04T09:16:04.164Z,94025.53
2022-12-04T09:18:30.951Z,94022.19
2022-12-04T09:21:01.372Z,94030.41
2022-12-04T09:23:28.397Z,94027.94
2022-12-04T09:25:55.338Z,94019.22
2022-12-04T09:28:22.195Z,94026.75
2022-12-04T09:31:04.787Z,94031.53
2022-12-04T09:33:32.993Z,94026.22
2022-12-04T09:36:01.438Z,94017.06
2022-12-04T09:38:29.960Z,94017.06
2022-12-04T09:41:23.210Z,94025.94
2022-12-04T09:43:59.997Z,94028.00
2022-12-04T09:46:37.564Z,94016.69
2022-12-04T09:49:15.967Z,94022.56
2022-12-04T09:51:42.908Z,94011.66
2022-12-04T09:54:24.155Z,94019.72
2022-12-04T09:57:11.116Z,94012.72
2022-12-04T09:59:38.445Z,94039.06
2022-12-04T10:23:13.558Z,94020.34
2022-12-04T10:25:41.976Z,94012.31
2022-12-04T10:28:08.627Z,94007.63
2022-12-04T10:30:38.226Z,94001.88
2022-12-04T10:33:24.287Z,93988.69
2022-12-04T10:35:54.316Z,94008.09
2022-12-04T10:38:47.917Z,94032.22
2022-12-04T10:41:46.009Z,94043.28
2022-12-04T10:44:18.079Z,94032.78
2022-12-04T10:46:46.529Z,94033.31
2022-12-04T10:49:45.611Z,94040.22
2022-12-04T10:52:15.244Z,94040.75
2022-12-04T10:54:59.775Z,94051.78
2022-12-04T10:57:46.761Z,94039.09
2022-12-04T11:00:34.579Z,94052.44
2022-12-04T11:03:08.934Z,94039.22
2022-12-04T11:05:55.516Z,94023.16
2022-12-04T11:08:49.739Z,94024.03
2022-12-04T11:11:25.816Z,94004.09
2022-12-04T11:14:17.532Z,94007.13
2022-12-04T11:17:00.207Z,94003.56
2022-12-04T11:19:30.719Z,93996.34
2022-12-04T11:22:11.313Z,93987.94
2022-12-04T11:24:40.343Z,93990.38
2022-12-04T11:27:17.687Z,93990.59
2022-12-04T11:29:45.988Z,93980.25
2022-12-04T11:32:33.733Z,93976.31
2022-12-04T11:35:13.100Z,93979.19
2022-12-04T11:37:45.210Z,93972.38
2022-12-04T11:40:19.198Z,93977.56
2022-12-04T11:43:01.540Z,93970.72
2022-12-04T11:45:28.308Z,93968.53
2022-12-04T11:47:58.633Z,93969.50
2022-12-04T11:50:52.255Z,93964.06
2022-12-04T11:54:03.552Z,93961.72
2022-12-04T11:56:36.430Z,93960.66
2022-12-04T11:59:38.402Z,93960.91
2022-12-04T12:02:23.442Z,93962.59
2022-12-04T12:05:34.766Z,93957.66
2022-12-04T12:08:23.461Z,93979.34
2022-12-04T12:11:32.237Z,93951.25
2022-12-04T12:14:32.416Z,93937.16
2022-12-04T12:17:21.991Z,93933.78
2022-12-04T12:20:11.229Z,93925.88
2022-12-04T12:23:10.988Z,93945.41
2022-12-04T12:26:26.975Z,93954.69
2022-12-04T12:29:38.023Z,93944.84
2022-12-04T12:32:28.449Z,93958.50
2022-12-04T12:34:55.675Z,93950.31
2022-12-04T12:37:44.678Z,93959.63
2022-12-04T12:40:15.813Z,93962.63
2022-12-04T12:42:58.027Z,93955.81
2022-12-04T12:45:37.066Z,93947.72
2022-12-04T12:48:36.449Z,93948.94
2022-12-04T12:51:29.006Z,93947.34
2022-12-04T12:53:58.804Z,93942.94
2022-12-04T12:56:49.168Z,93959.06
2022-12-04T12:59:22.052Z,93945.41
2022-12-04T13:02:02.316Z,93935.03
2022-12-04T13:04:42.801Z,93939.94
2022-12-04T13:07:21.043Z,93925.19
2022-12-04T13:10:08.035Z,93943.75
2022-12-04T13:12:45.828Z,93951.16
2022-12-04T13:15:16.976Z,93961.50
2022-12-04T13:17:45.792Z,93974.75
2022-12-04T13:20:22.407Z,93970.50
2022-12-04T13:23:11.943Z,93966.28
2022-12-04T13:25:50.656Z,93966.69
2022-12-04T13:28:37.614Z,93970.41
2022-12-04T13:31:37.001Z,93961.25
2022-12-04T13:34:33.473Z,93960.16
2022-12-04T13:37:35.119Z,93967.00
2022-12-04T13:40:31.522Z,93955.66
2022-12-04T13:43:28.696Z,93954.41
2022-12-04T13:46:00.230Z,93955.50
2022-12-04T13:48:42.616Z,93964.97
2022-12-04T13:51:42.606Z,93969.47
2022-12-04T13:54:11.891Z,93971.09
2022-12-04T13:56:55.688Z,93984.75
2022-12-04T13:59:28.518Z,93984.19
2022-12-04T14:01:58.021Z,93982.72
2022-12-04T14:04:31.821Z,93984.75
2022-12-04T14:07:00.631Z,93992.41
2022-12-04T14:09:40.864Z,93981.34
2022-12-04T14:12:12.877Z,93997.88
2022-12-04T14:14:40.526Z,93999.50
2022-12-04T14:17:28.310Z,93995.81
2022-12-04T14:20:04.294Z,93988.03
2022-12-04T14:22:34.714Z,93997.06
2022-12-04T14:25:13.117Z,94002.50
2022-12-04T14:27:42.892Z,94006.63
2022-12-04T14:30:38.192Z,93989.69
2022-12-04T14:33:22.713Z,93982.16
2022-12-04T14:35:59.040Z,93973.41
2022-12-04T14:38:26.374Z,93963.28
2022-12-04T14:40:58.358Z,93983.50
2022-12-04T14:43:30.449Z,93979.28
2022-12-04T14:46:09.616Z,93983.25
2022-12-04T14:49:22.219Z,93981.34
2022-12-04T14:52:16.294Z,93974.38
2022-12-04T14:55:15.296Z,93941.59
2022-12-04T14:58:28.496Z,93945.13
2022-12-04T15:00:58.185Z,93959.91
2022-12-04T15:03:26.725Z,93948.00
2022-12-04T15:06:09.019Z,93950.06
2022-12-04T15:08:36.011Z,93940.19
2022-12-04T15:11:25.245Z,93936.41
2022-12-04T15:13:52.012Z,93923.44
2022-12-04T15:16:23.331Z,93921.91
2022-12-04T15:18:58.589Z,93922.72
2022-12-04T15:21:36.614Z,93921.66
2022-12-04T15:24:25.184Z,93910.03
2022-12-04T15:26:53.672Z,93894.59
2022-12-04T15:29:35.739Z,93891.59
2022-12-04T15:32:08.684Z,93860.28
2022-12-04T15:34:43.743Z,93856.34
2022-12-04T15:37:20.829Z,93870.53
2022-12-04T15:39:49.897Z,93865.22
2022-12-04T15:42:28.248Z,93899.50
2022-12-04T15:45:09.474Z,93934.34
2022-12-04T15:47:41.774Z,93944.06
2022-12-04T15:50:21.877Z,93954.94
2022-12-04T15:52:55.794Z,93949.75
2022-12-04T15:55:24.887Z,93944.56
2022-12-04T15:58:00.051Z,93950.31
2022-12-04T16:00:34.721Z,93945.13
2022-12-04T16:03:02.185Z,93943.06
2022-12-04T16:05:36.582Z,93943.75
2022-12-04T16:08:32.180Z,93943.75
2022-12-04T16:11:22.370Z,93963.84
2022-12-04T16:14:09.564Z,93961.66
2022-12-04T16:16:42.197Z,93953.72
2022-12-04T16:19:15.279Z,93962.91
2022-12-04T16:21:42.030Z,93946.78
2022-12-04T16:24:12.181Z,93958.53
2022-12-04T16:26:39.069Z,93957.28
2022-12-04T16:29:06.018Z,93971.38
2022-12-04T16:31:32.860Z,93975.88
2022-12-04T16:33:59.784Z,93977.38
2022-12-04T16:36:26.723Z,93974.75
2022-12-04T16:38:53.478Z,93977.22
2022-12-04T16:41:21.547Z,93979.66
2022-12-04T16:43:56.348Z,93987.19
2022-12-04T16:46:26.608Z,93972.16
2022-12-04T16:48:53.818Z,93978.31
2022-12-04T16:51:24.358Z,93980.34
2022-12-04T16:53:52.082Z,93979.00
2022-12-04T16:56:20.575Z,93982.78
2022-12-04T16:58:48.659Z,93977.19
2022-12-04T17:01:24.805Z,93982.50
2022-12-04T17:03:52.189Z,93994.78
2022-12-04T17:06:19.181Z,93985.75
2022-12-04T17:08:46.331Z,94004.59
2022-12-04T17:11:17.235Z,93999.16
2022-12-04T17:13:44.535Z,93993.94
2022-12-04T17:16:14.784Z,94008.69
2022-12-04T17:18:43.571Z,94008.19
2022-12-04T17:21:13.352Z,94008.38
2022-12-04T17:23:41.249Z,94009.94
2022-12-04T17:26:12.523Z,94002.81
2022-12-04T17:28:39.841Z,94002.44
2022-12-04T17:31:18.257Z,94010.63
2022-12-04T17:33:45.626Z,94002.97
2022-12-04T17:36:16.850Z,94014.16
2022-12-04T17:38:44.801Z,94001.06
2022-12-04T17:41:14.117Z,94012.09
2022-12-04T17:43:43.028Z,94018.13
2022-12-04T17:46:13.176Z,94004.59
2022-12-04T17:48:40.821Z,94014.03
2022-12-04T17:51:15.216Z,94024.28
2022-12-04T17:53:42.706Z,94006.53
2022-12-04T17:56:17.530Z,94021.84
2022-12-04T17:58:45.665Z,94026.63
2022-12-04T18:01:17.340Z,94022.50
2022-12-04T18:03:44.510Z,94028.78
2022-12-04T18:06:17.735Z,94025.00
2022-12-04T18:08:49.883Z,94029.47
2022-12-04T18:11:22.066Z,94028.09
2022-12-04T18:13:54.120Z,94022.38
2022-12-04T18:16:21.073Z,94007.19
2022-12-04T18:18:47.957Z,94022.09
2022-12-04T18:21:15.324Z,94033.84
2022-12-04T18:23:45.944Z,94030.16
2022-12-04T18:26:22.229Z,94030.84
2022-12-04T18:28:49.847Z,94028.41
2022-12-04T18:31:19.298Z,94039.47
2022-12-04T18:33:46.730Z,94050.78
2022-12-04T18:36:21.771Z,94058.44
2022-12-04T18:38:55.699Z,94048.00
2022-12-04T18:41:23.429Z,94051.94
2022-12-04T18:43:51.137Z,94067.25
2022-12-04T18:46:18.670Z,94079.41
2022-12-04T18:48:47.356Z,94074.34
2022-12-04T18:51:30.654Z,94078.03
2022-12-04T18:54:05.204Z,94080.34
2022-12-04T18:56:35.279Z,94072.84
2022-12-04T18:59:24.565Z,94073.66
2022-12-04T19:01:53.413Z,94078.44
2022-12-04T19:04:22.350Z,94070.94
2022-12-04T19:06:55.372Z,94069.28
2022-12-04T19:09:54.263Z,94074.47
2022-12-04T19:12:16.179Z,94082.13
2022-12-04T19:14:42.976Z,94079.41
2022-12-04T19:17:10.415Z,94090.59
2022-12-04T19:19:37.185Z,94092.97
2022-12-04T19:22:04.163Z,94093.25
2022-12-04T19:24:31.197Z,94101.44
2022-12-04T19:26:57.993Z,94091.06
2022-12-04T19:29:24.780Z,94100.34
2022-12-04T19:31:55.997Z,94095.28
2022-12-04T19:34:25.660Z,94103.50
2022-12-04T19:36:54.995Z,94100.47
2022-12-04T19:39:21.724Z,94100.75
2022-12-04T19:41:48.534Z,94103.34
2022-12-04T19:44:47.484Z,94109.56
2022-12-04T19:47:02.258Z,94110.50
2022-12-04T19:49:29.195Z,94111.44
2022-12-04T19:51:56.021Z,94123.06
2022-12-04T19:54:23.866Z,94115.09
2022-12-04T19:56:52.668Z,94131.75
2022-12-04T19:59:20.527Z,94134.22
2022-12-04T20:01:47.396Z,94132.63
2022-12-04T20:04:14.374Z,94122.88
2022-12-04T20:06:45.044Z,94127.97
2022-12-04T20:11:46.528Z,94137.94
2022-12-04T20:14:13.278Z,94132.31
2022-12-04T20:16:40.955Z,94130.44
2022-12-04T20:19:15.987Z,94132.63
2022-12-04T20:21:43.853Z,94133.31
2022-12-04T20:24:16.224Z,94124.72
2022-12-04T20:26:44.994Z,94126.06
2022-12-04T20:29:16.110Z,94124.41
2022-12-04T20:31:45.660Z,94127.16
2022-12-04T20:34:17.188Z,94134.25
2022-12-04T20:36:47.217Z,94142.72
2022-12-04T20:39:15.750Z,94130.84
2022-12-04T20:41:42.955Z,94135.84
2022-12-04T20:44:14.817Z,94142.44
2022-12-04T20:46:42.664Z,94146.22
2022-12-04T20:49:20.600Z,94148.13
2022-12-04T20:51:48.568Z,94138.00
2022-12-04T20:54:18.749Z,94145.53
2022-12-04T20:56:48.707Z,94153.06
2022-12-04T20:59:17.290Z,94135.03
2022-12-04T21:01:44.097Z,94142.44
2022-12-04T21:04:12.844Z,94129.34
2022-12-04T21:06:41.204Z,94138.91
2022-12-04T21:09:18.773Z,94127.56
2022-12-04T21:11:50.446Z,94129.34
2022-12-04T21:14:48.817Z,94121.09
2022-12-04T21:17:19.330Z,94124.66
2022-12-04T21:19:49.819Z,94131.25
2022-12-04T21:22:18.956Z,94133.03
2022-12-04T21:24:45.737Z,94131.47
2022-12-04T21:27:17.434Z,94131.81
2022-12-04T21:29:48.083Z,94129.34
2022-12-04T21:32:15.304Z,94131.13
2022-12-04T21:34:42.204Z,94130.53
2022-12-04T21:37:08.972Z,94134.06
2022-12-04T21:39:37.074Z,94139.41
2022-12-04T21:42:22.992Z,94141.63
2022-12-04T21:44:49.730Z,94150.09
2022-12-04T21:47:16.559Z,94153.19
2022-12-04T21:49:43.332Z,94152.09
2022-12-04T21:52:10.132Z,94146.88
2022-12-04T21:54:36.870Z,94150.41
2022-12-04T21:57:03.693Z,94155.78
2022-12-04T21:59:30.498Z,94166.66
2022-12-04T22:01:57.258Z,94164.81
2022-12-04T22:04:24.288Z,94162.25
2022-12-04T22:06:51.130Z,94173.56
2022-12-04T22:09:18.070Z,94172.72
2022-12-04T22:11:45.731Z,94165.28
2022-12-04T22:14:12.635Z,94169.50
2022-12-04T22:16:43.658Z,94164.59
2022-12-04T22:19:12.785Z,94167.41
2022-12-04T22:21:40.291Z,94170.47
2022-12-04T22:24:07.885Z,94174.69
2022-12-04T22:26:34.647Z,94170.47
2022-12-04T22:29:03.155Z,94165.97
2022-12-04T22:31:32.240Z,94159.00
2022-12-04T22:34:01.583Z,94167.47
2022-12-04T22:36:31.688Z,94162.38
2022-12-04T22:39:09.773Z,94166.97
2022-12-04T22:41:37.841Z,94183.50
2022-12-04T22:44:05.637Z,94192.91
2022-12-04T22:46:33.038Z,94178.03
2022-12-04T22:49:00.431Z,94189.44
2022-12-04T22:51:28.303Z,94199.19
2022-12-04T22:53:57.875Z,94189.84
2022-12-04T22:56:30.510Z,94208.00
2022-12-04T22:58:58.741Z,94205.69
2022-12-04T23:01:33.976Z,94211.44
2022-12-04T23:04:02.741Z,94209.22
2022-12-04T23:06:32.200Z,94217.94
2022-12-04T23:09:04.880Z,94212.13
2022-12-04T23:11:31.865Z,94199.22
2022-12-04T23:14:02.315Z,94215.78
2022-12-04T23:16:31.769Z,94212.25
2022-12-04T23:18:59.157Z,94216.38
2022-12-04T23:21:27.203Z,94221.56
2022-12-04T23:23:55.492Z,94224.84
2022-12-04T23:26:32.472Z,94212.25
2022-12-04T23:28:59.644Z,94215.94
2022-12-04T23:31:26.466Z,94213.78
2022-12-04T23:33:53.273Z,94214.84
2022-12-04T23:36:20.704Z,94221.31
2022-12-04T23:38:48.352Z,94228.41
2022-12-04T23:41:37.301Z,94225.09
2022-12-04T23:44:04.340Z,94221.81
2022-12-04T23:46:32.846Z,94221.94
2022-12-04T23:49:00.964Z,94248.75
2022-12-04T23:51:28.881Z,94245.34
2022-12-04T23:53:56.053Z,94237.09
2022-12-04T23:56:25.856Z,94261.59
2022-12-04T23:58:55.741Z,94262.81
